createdAt,value
2023-02-08T00:01:08.448Z,1.88
2023-02-08T00:03:37.271Z,1.82
2023-02-08T00:06:05.500Z,1.77
2023-02-08T00:08:34.097Z,1.70
2023-02-08T00:11:03.245Z,1.74
2023-02-08T00:13:32.159Z,1.64
2023-02-08T00:16:03.610Z,1.74
2023-02-08T00:18:31.419Z,1.66
2023-02-08T00:20:59.179Z,1.64
2023-02-08T00:23:27.181Z,1.64
2023-02-08T00:25:54.989Z,1.64
2023-02-08T00:28:22.999Z,1.68
2023-02-08T00:30:50.964Z,1.66
2023-02-08T00:33:20.122Z,1.71
2023-02-08T00:35:47.895Z,1.71
2023-02-08T00:38:15.556Z,1.72
2023-02-08T00:40:43.643Z,1.72
2023-02-08T00:43:11.694Z,1.69
2023-02-08T00:45:39.508Z,1.75
2023-02-08T00:48:07.286Z,1.73
2023-02-08T00:50:36.357Z,1.67
2023-02-08T00:53:04.534Z,1.59
2023-02-08T00:55:32.436Z,1.66
2023-02-08T00:58:00.555Z,1.62
2023-02-08T01:00:28.271Z,1.55
2023-02-08T01:02:56.104Z,1.67
2023-02-08T01:05:24.441Z,1.55
2023-02-08T01:10:39.624Z,1.46
2023-02-08T01:13:11.217Z,1.48
2023-02-08T01:15:44.121Z,1.47
2023-02-08T01:18:12.252Z,1.48
2023-02-08T01:20:40.133Z,1.41
2023-02-08T01:23:09.233Z,1.38
2023-02-08T01:25:37.253Z,1.41
2023-02-08T01:28:05.315Z,1.42
2023-02-08T01:30:32.965Z,1.36
2023-02-08T01:33:00.761Z,1.37
2023-02-08T01:35:28.381Z,1.35
2023-02-08T01:37:55.982Z,1.37
2023-02-08T01:40:25.197Z,1.23
2023-02-08T01:42:53.152Z,1.18
2023-02-08T01:45:25.914Z,1.11
2023-02-08T01:47:58.067Z,0.94
2023-02-08T01:50:30.182Z,1.07
2023-02-08T01:52:57.670Z,0.84
2023-02-08T01:55:29.479Z,0.91
2023-02-08T01:57:59.985Z,0.99
2023-02-08T02:00:27.623Z,0.97
2023-02-08T02:02:56.752Z,0.86
2023-02-08T02:05:26.613Z,1.02
2023-02-08T02:07:54.778Z,1.09
2023-02-08T02:10:26.240Z,1.09
2023-02-08T02:12:56.123Z,1.09
2023-02-08T02:15:23.670Z,1.11
2023-02-08T02:17:51.182Z,1.27
2023-02-08T02:20:25.382Z,1.25
2023-02-08T02:23:23.395Z,1.21
2023-02-08T02:26:07.683Z,1.26
2023-02-08T02:28:59.671Z,1.21
2023-02-08T02:31:49.668Z,1.21
2023-02-08T02:34:20.077Z,1.15
2023-02-08T02:36:52.886Z,1.23
2023-02-08T02:39:27.101Z,1.08
2023-02-08T02:42:15.997Z,0.88
2023-02-08T02:44:54.092Z,0.93
2023-02-08T02:47:28.771Z,0.97
2023-02-08T02:50:05.241Z,0.98
2023-02-08T02:52:36.855Z,1.00
2023-02-08T02:55:06.494Z,1.02
2023-02-08T02:57:36.136Z,0.94
2023-02-08T03:00:08.570Z,0.96
2023-02-08T03:02:39.335Z,0.96
2023-02-08T03:05:08.448Z,1.02
2023-02-08T03:07:50.681Z,0.98
2023-02-08T03:10:27.081Z,1.01
2023-02-08T03:13:00.452Z,0.93
2023-02-08T03:15:34.371Z,0.94
2023-02-08T03:18:11.534Z,0.95
2023-02-08T03:21:36.328Z,1.02
2023-02-08T03:24:14.363Z,1.02
2023-02-08T03:26:47.800Z,1.03
2023-02-08T03:36:50.224Z,0.88
2023-02-08T03:39:21.328Z,0.94
2023-02-08T03:41:51.239Z,0.93
2023-02-08T03:44:22.320Z,0.92
2023-02-08T03:46:52.170Z,0.89
2023-02-08T03:49:22.535Z,0.90
2023-02-08T03:51:52.307Z,0.91
2023-02-08T03:54:21.844Z,0.84
2023-02-08T03:56:53.988Z,0.81
2023-02-08T03:59:24.404Z,0.81
2023-02-08T04:01:56.272Z,0.82
2023-02-08T04:04:24.510Z,0.82
2023-02-08T04:06:53.905Z,0.74
2023-02-08T04:09:21.518Z,0.74
2023-02-08T04:11:49.994Z,0.75
2023-02-08T04:14:17.963Z,0.84
2023-02-08T04:16:45.713Z,0.81
2023-02-08T04:19:13.334Z,0.77
2023-02-08T04:21:40.960Z,0.78
2023-02-08T04:24:09.967Z,0.77
2023-02-08T04:26:38.070Z,0.76
2023-02-08T04:29:05.712Z,0.75
2023-02-08T04:31:34.001Z,0.82
2023-02-08T04:34:02.833Z,0.86
2023-02-08T04:36:30.679Z,0.81
2023-02-08T04:38:58.748Z,0.81
2023-02-08T04:41:27.913Z,0.92
2023-02-08T04:43:55.438Z,0.94
2023-02-08T04:46:23.688Z,0.95
2023-02-08T04:48:51.437Z,0.92
2023-02-08T04:51:19.058Z,0.94
2023-02-08T04:53:46.684Z,0.94
2023-02-08T04:56:14.634Z,0.94
2023-02-08T04:58:43.855Z,0.93
2023-02-08T05:01:11.796Z,0.84
2023-02-08T05:03:39.408Z,0.82
2023-02-08T05:06:07.735Z,0.75
2023-02-08T05:08:35.294Z,0.73
2023-02-08T05:11:02.789Z,0.77
2023-02-08T05:13:30.235Z,0.76
2023-02-08T05:15:59.079Z,0.70
2023-02-08T05:18:26.849Z,0.79
2023-02-08T05:20:58.036Z,0.65
2023-02-08T05:23:25.987Z,0.68
2023-02-08T05:25:53.799Z,0.74
2023-02-08T05:28:21.526Z,0.68
2023-02-08T05:30:49.529Z,0.69
2023-02-08T05:33:18.815Z,0.55
2023-02-08T05:35:46.637Z,0.58
2023-02-08T05:38:14.178Z,0.60
2023-02-08T05:40:41.831Z,0.61
2023-02-08T05:43:09.420Z,0.60
2023-02-08T05:45:37.004Z,0.52
2023-02-08T05:48:04.757Z,0.40
2023-02-08T05:50:33.601Z,0.41
2023-02-08T05:53:01.084Z,0.36
2023-02-08T05:55:29.942Z,0.33
2023-02-08T05:57:57.356Z,0.31
2023-02-08T06:00:24.830Z,0.31
2023-02-08T06:02:53.165Z,0.14
2023-02-08T06:05:20.892Z,0.23
2023-02-08T06:07:53.603Z,0.15
2023-02-08T06:10:21.155Z,0.23
2023-02-08T06:12:48.587Z,0.18
2023-02-08T06:15:16.049Z,0.18
2023-02-08T06:17:43.429Z,0.19
2023-02-08T06:20:11.528Z,0.15
2023-02-08T06:22:39.237Z,0.22
2023-02-08T06:25:08.402Z,0.20
2023-02-08T06:27:35.875Z,0.21
2023-02-08T06:30:03.556Z,0.24
2023-02-08T06:32:31.002Z,0.28
2023-02-08T06:34:58.466Z,0.26
2023-02-08T06:37:25.852Z,0.22
2023-02-08T06:39:53.244Z,0.21
2023-02-08T06:42:21.921Z,0.09
2023-02-08T06:44:54.983Z,0.13
2023-02-08T06:47:22.739Z,0.20
2023-02-08T06:49:50.465Z,0.19
2023-02-08T06:52:17.802Z,0.15
2023-02-08T06:54:45.808Z,0.18
2023-02-08T06:57:13.503Z,0.10
2023-02-08T06:59:42.789Z,0.13
2023-02-08T07:02:13.398Z,-0.03
2023-02-08T07:04:40.820Z,0.05
2023-02-08T07:07:08.601Z,0.05
2023-02-08T07:09:36.040Z,-0.04
2023-02-08T07:12:05.024Z,0.01
2023-02-08T07:14:32.529Z,-0.24
2023-02-08T07:17:03.006Z,-0.13
2023-02-08T07:19:30.987Z,-0.08
2023-02-08T07:22:07.459Z,-0.18
2023-02-08T07:24:35.598Z,-0.10
2023-02-08T07:27:03.516Z,-0.18
2023-02-08T07:29:31.203Z,-0.28
2023-02-08T07:31:59.241Z,-0.34
2023-02-08T07:34:30.294Z,-0.59
2023-02-08T07:36:57.745Z,-0.44
2023-02-08T07:39:25.450Z,-0.63
2023-02-08T07:41:52.980Z,-0.54
2023-02-08T07:44:20.333Z,-0.59
2023-02-08T07:46:47.780Z,-0.62
2023-02-08T07:49:15.124Z,-0.47
2023-02-08T07:51:43.914Z,-0.66
2023-02-08T07:54:11.298Z,-0.51
2023-02-08T07:56:38.670Z,-0.56
2023-02-08T07:59:06.044Z,-0.48
2023-02-08T08:01:33.677Z,-0.36
2023-02-08T08:04:03.163Z,-0.31
2023-02-08T08:06:30.656Z,-0.36
2023-02-08T08:08:59.405Z,-0.40
2023-02-08T08:11:26.887Z,-0.37
2023-02-08T08:13:54.277Z,-0.24
2023-02-08T08:16:21.845Z,-0.33
2023-02-08T08:18:50.621Z,-0.15
2023-02-08T08:21:18.102Z,-0.31
2023-02-08T08:23:45.528Z,-0.26
2023-02-08T08:26:15.713Z,-0.23
2023-02-08T08:28:43.228Z,-0.13
2023-02-08T08:31:11.560Z,-0.09
2023-02-08T08:33:39.035Z,0.06
2023-02-08T08:36:06.935Z,0.15
2023-02-08T08:38:34.304Z,0.16
2023-02-08T08:41:04.191Z,0.26
2023-02-08T08:43:32.856Z,0.26
2023-02-08T08:46:00.296Z,0.22
2023-02-08T08:48:27.668Z,0.42
2023-02-08T08:50:55.429Z,0.38
2023-02-08T08:53:22.970Z,0.32
2023-02-08T08:55:50.359Z,0.43
2023-02-08T08:58:17.757Z,0.40
2023-02-08T09:00:46.460Z,0.52
2023-02-08T09:03:13.901Z,0.65
2023-02-08T09:05:41.350Z,0.52
2023-02-08T09:08:08.838Z,0.58
2023-02-08T09:10:36.253Z,0.82
2023-02-08T09:13:04.233Z,0.78
2023-02-08T09:15:31.674Z,0.68
2023-02-08T09:18:00.403Z,0.81
2023-02-08T09:20:27.764Z,0.93
2023-02-08T09:22:55.240Z,0.84
2023-02-08T09:25:22.673Z,0.94
2023-02-08T09:27:50.076Z,0.99
2023-02-08T09:30:17.444Z,1.09
2023-02-08T09:32:45.335Z,1.13
2023-02-08T09:35:15.286Z,1.21
2023-02-08T09:37:42.681Z,1.42
2023-02-08T09:40:20.798Z,1.37
2023-02-08T09:42:56.231Z,1.47
2023-02-08T09:45:41.358Z,1.41
2023-02-08T09:48:22.126Z,1.57
2023-02-08T09:50:54.323Z,1.65
2023-02-08T09:53:25.746Z,1.62
2023-02-08T09:55:57.693Z,1.66
2023-02-08T09:58:28.701Z,1.67
2023-02-08T10:00:56.714Z,1.65
2023-02-08T10:03:34.288Z,1.75
2023-02-08T10:06:04.064Z,1.81
2023-02-08T10:08:35.636Z,1.79
2023-02-08T10:11:10.791Z,1.81
2023-02-08T10:13:57.429Z,1.84
2023-02-08T10:16:39.546Z,1.86
2023-02-08T10:19:12.973Z,1.84
2023-02-08T10:21:52.964Z,1.82
2023-02-08T10:24:40.650Z,1.85
2023-02-08T10:27:14.786Z,1.92
2023-02-08T10:29:53.219Z,2.00
2023-02-08T10:32:35.237Z,2.05
2023-02-08T10:35:05.367Z,2.13
2023-02-08T10:37:35.881Z,2.17
2023-02-08T10:40:16.727Z,2.19
2023-02-08T10:42:47.214Z,2.19
2023-02-08T10:45:24.608Z,2.21
2023-02-08T10:47:54.227Z,2.18
2023-02-08T10:50:24.095Z,2.25
2023-02-08T10:52:52.778Z,2.23
2023-02-08T10:55:22.224Z,2.38
2023-02-08T10:57:52.329Z,2.45
2023-02-08T11:00:22.210Z,2.50
2023-02-08T11:02:52.664Z,2.53
2023-02-08T11:05:23.250Z,2.59
2023-02-08T11:08:06.129Z,2.59
2023-02-08T11:10:34.507Z,2.63
2023-02-08T11:13:05.586Z,2.67
2023-02-08T11:15:39.479Z,2.67
2023-02-08T11:18:08.240Z,2.76
2023-02-08T11:20:37.619Z,2.76
2023-02-08T11:23:07.420Z,2.75
2023-02-08T11:25:38.024Z,2.79
2023-02-08T11:28:06.761Z,2.83
2023-02-08T11:30:34.341Z,2.88
2023-02-08T11:33:20.419Z,2.92
2023-02-08T11:36:05.613Z,2.98
2023-02-08T11:38:35.826Z,2.98
2023-02-08T11:41:04.618Z,3.05
2023-02-08T11:43:34.360Z,3.01
2023-02-08T11:46:03.835Z,3.06
2023-02-08T11:48:40.408Z,3.07
2023-02-08T11:51:08.176Z,3.17
2023-02-08T11:53:39.541Z,3.13
2023-02-08T11:56:17.372Z,3.20
2023-02-08T11:58:57.389Z,3.29
2023-02-08T12:01:28.669Z,3.32
2023-02-08T12:03:57.665Z,3.30
2023-02-08T12:06:41.199Z,3.34
2023-02-08T12:09:17.597Z,3.25
2023-02-08T12:11:47.110Z,3.34
2023-02-08T12:14:26.788Z,3.44
2023-02-08T12:17:05.842Z,3.40
2023-02-08T12:20:03.341Z,3.38
2023-02-08T12:22:31.943Z,3.40
2023-02-08T12:25:11.217Z,3.43
2023-02-08T12:27:43.716Z,3.51
2023-02-08T12:30:18.950Z,3.54
2023-02-08T12:32:56.704Z,3.55
2023-02-08T12:35:51.044Z,3.58
2023-02-08T12:38:55.860Z,3.53
2023-02-08T12:41:31.731Z,3.53
2023-02-08T12:44:06.254Z,3.48
2023-02-08T12:46:52.610Z,3.59
2023-02-08T12:49:30.711Z,3.62
2023-02-08T12:52:08.208Z,3.71
2023-02-08T12:54:40.135Z,3.72
2023-02-08T12:57:13.288Z,3.72
2023-02-08T12:59:44.180Z,3.67
2023-02-08T13:02:16.304Z,3.69
2023-02-08T13:04:47.192Z,3.67
2023-02-08T13:07:17.872Z,3.66
2023-02-08T13:09:50.631Z,3.73
2023-02-08T13:12:22.025Z,3.72
2023-02-08T13:14:52.674Z,3.79
2023-02-08T13:17:23.301Z,3.79
2023-02-08T13:20:00.275Z,3.83
2023-02-08T13:22:28.637Z,3.83
2023-02-08T13:25:08.953Z,3.76
2023-02-08T13:27:38.038Z,3.77
2023-02-08T13:30:07.054Z,3.85
2023-02-08T13:32:37.853Z,3.84
2023-02-08T13:35:14.738Z,3.82
2023-02-08T13:37:42.568Z,3.73
2023-02-08T13:40:21.448Z,3.79
2023-02-08T13:42:53.683Z,3.85
2023-02-08T13:45:26.455Z,3.83
2023-02-08T13:47:58.459Z,3.82
2023-02-08T13:50:46.980Z,3.86
2023-02-08T13:53:15.882Z,3.82
2023-02-08T13:55:56.197Z,3.84
2023-02-08T13:58:39.947Z,3.94
2023-02-08T14:01:16.283Z,3.89
2023-02-08T14:03:43.921Z,3.93
2023-02-08T14:06:19.136Z,3.90
2023-02-08T14:08:54.485Z,3.95
2023-02-08T14:11:40.416Z,3.98
2023-02-08T14:14:17.779Z,3.96
2023-02-08T14:16:45.836Z,3.91
2023-02-08T14:19:23.895Z,3.90
2023-02-08T14:22:01.204Z,3.92
2023-02-08T14:24:34.022Z,3.93
2023-02-08T14:27:09.705Z,4.03
2023-02-08T14:29:39.145Z,4.06
2023-02-08T14:32:07.135Z,4.07
2023-02-08T14:34:36.742Z,4.05
2023-02-08T14:37:07.401Z,4.06
2023-02-08T14:39:37.155Z,4.00
2023-02-08T14:42:08.628Z,4.01
2023-02-08T14:44:59.731Z,3.97
2023-02-08T14:48:17.647Z,4.08
2023-02-08T14:50:59.250Z,4.05
2023-02-08T14:53:32.472Z,3.95
2023-02-08T14:56:06.598Z,4.01
2023-02-08T14:58:36.672Z,4.03
2023-02-08T15:01:09.074Z,3.90
2023-02-08T15:03:36.985Z,3.98
2023-02-08T15:06:34.978Z,3.92
2023-02-08T15:09:03.085Z,4.01
2023-02-08T15:11:32.514Z,3.94
2023-02-08T15:14:02.054Z,3.92
2023-02-08T15:16:35.668Z,3.94
2023-02-08T15:19:04.639Z,3.82
2023-02-08T15:21:37.341Z,3.88
2023-02-08T15:24:07.956Z,3.92
2023-02-08T15:26:36.179Z,3.82
2023-02-08T15:29:04.185Z,3.74
2023-02-08T15:31:34.994Z,3.83
2023-02-08T15:34:02.990Z,3.72
2023-02-08T15:36:31.951Z,3.69
2023-02-08T15:39:02.967Z,3.54
2023-02-08T15:41:33.942Z,3.59
2023-02-08T15:44:04.189Z,3.60
2023-02-08T15:46:32.286Z,3.46
2023-02-08T15:49:01.316Z,3.50
2023-02-08T15:51:29.861Z,3.54
2023-02-08T15:53:58.079Z,3.47
2023-02-08T15:56:36.515Z,3.44
2023-02-08T15:59:06.726Z,3.43
2023-02-08T16:01:34.566Z,3.30
2023-02-08T16:04:06.013Z,3.29
2023-02-08T16:06:38.248Z,3.32
2023-02-08T16:09:06.872Z,3.29
2023-02-08T16:11:36.505Z,3.22
2023-02-08T16:14:05.539Z,3.21
2023-02-08T16:16:40.597Z,3.18
2023-02-08T16:19:21.405Z,3.21
2023-02-08T16:21:48.994Z,3.23
2023-02-08T16:24:22.529Z,3.24
2023-02-08T16:26:56.455Z,3.15
2023-02-08T16:29:26.370Z,3.12
2023-02-08T16:32:00.971Z,3.14
2023-02-08T16:34:31.057Z,3.22
2023-02-08T16:36:59.226Z,3.30
2023-02-08T16:39:39.385Z,3.39
2023-02-08T16:42:15.462Z,3.41
2023-02-08T16:45:03.220Z,3.46
2023-02-08T16:47:36.941Z,3.50
2023-02-08T16:50:06.616Z,3.39
2023-02-08T16:52:34.601Z,3.42
2023-02-08T16:55:02.319Z,3.19
2023-02-08T16:57:40.476Z,3.05
2023-02-08T17:00:16.014Z,3.18
2023-02-08T17:02:43.395Z,3.13
2023-02-08T17:05:12.066Z,3.03
2023-02-08T17:07:39.611Z,3.00
2023-02-08T17:10:09.087Z,2.96
2023-02-08T17:12:37.185Z,2.95
2023-02-08T17:15:04.925Z,2.85
2023-02-08T17:17:32.321Z,2.73
2023-02-08T17:19:59.756Z,2.72
2023-02-08T17:22:28.550Z,2.69
2023-02-08T17:24:55.957Z,2.64
2023-02-08T17:27:23.694Z,2.62
2023-02-08T17:29:52.801Z,2.62
2023-02-08T17:32:20.232Z,2.42
2023-02-08T17:34:47.616Z,2.52
2023-02-08T17:37:15.132Z,2.37
2023-02-08T17:39:48.901Z,2.29
2023-02-08T17:42:17.871Z,2.40
2023-02-08T17:44:45.431Z,2.26
2023-02-08T17:47:12.892Z,2.38
2023-02-08T17:49:40.335Z,2.23
2023-02-08T17:52:07.804Z,2.28
2023-02-08T17:54:37.331Z,2.35
2023-02-08T17:57:08.517Z,2.25
2023-02-08T17:59:36.723Z,2.23
2023-02-08T18:02:04.273Z,2.23
2023-02-08T18:04:31.770Z,2.23
2023-02-08T18:06:59.422Z,2.07
2023-02-08T18:09:27.045Z,1.98
2023-02-08T18:11:54.449Z,1.92
2023-02-08T18:14:23.314Z,2.04
2023-02-08T18:16:50.713Z,2.06
2023-02-08T18:19:18.831Z,1.99
2023-02-08T18:21:46.344Z,2.06
2023-02-08T18:24:13.865Z,2.14
2023-02-08T18:26:41.341Z,2.27
2023-02-08T18:29:08.721Z,2.12
2023-02-08T18:31:37.705Z,2.01
2023-02-08T18:34:05.358Z,1.94
2023-02-08T18:36:34.521Z,2.01
2023-02-08T18:39:02.079Z,2.01
2023-02-08T18:41:30.994Z,1.85
2023-02-08T18:43:59.297Z,1.77
2023-02-08T18:46:28.284Z,1.84
2023-02-08T18:48:57.931Z,2.07
2023-02-08T18:51:28.719Z,1.79
2023-02-08T18:53:56.739Z,1.76
2023-02-08T18:56:25.918Z,1.86
2023-02-08T18:58:54.057Z,1.73
2023-02-08T19:01:23.293Z,1.77
2023-02-08T19:03:51.782Z,1.73
2023-02-08T19:06:24.360Z,1.66
2023-02-08T19:08:52.660Z,1.64
2023-02-08T19:11:21.680Z,1.59
2023-02-08T19:13:49.586Z,1.70
2023-02-08T19:16:18.069Z,1.61
2023-02-08T19:18:45.907Z,1.51
2023-02-08T19:21:16.911Z,1.48
2023-02-08T19:23:46.379Z,1.29
2023-02-08T19:26:17.067Z,1.40
2023-02-08T19:28:44.537Z,1.32
2023-02-08T19:31:13.616Z,1.32
2023-02-08T19:33:44.007Z,1.30
2023-02-08T19:36:13.313Z,1.30
2023-02-08T19:38:41.277Z,1.30
2023-02-08T19:41:15.149Z,1.01
2023-02-08T19:43:42.710Z,1.15
2023-02-08T19:46:11.201Z,1.13
2023-02-08T19:48:38.846Z,1.17
2023-02-08T19:51:07.069Z,1.12
2023-02-08T19:53:34.681Z,1.17
2023-02-08T19:56:05.240Z,1.04
2023-02-08T19:58:35.030Z,1.18
2023-02-08T20:01:07.386Z,1.13
2023-02-08T20:03:35.160Z,1.20
2023-02-08T20:06:02.726Z,1.09
2023-02-08T20:08:30.643Z,1.15
2023-02-08T20:10:58.092Z,1.07
2023-02-08T20:13:25.795Z,1.04
2023-02-08T20:15:59.697Z,1.15
2023-02-08T20:18:27.200Z,1.00
2023-02-08T20:21:03.274Z,1.13
2023-02-08T20:23:31.034Z,1.04
2023-02-08T20:26:10.143Z,1.02
2023-02-08T20:28:38.439Z,0.93
2023-02-08T20:31:12.745Z,1.00
2023-02-08T20:33:40.375Z,0.89
2023-02-08T20:36:09.671Z,0.96
2023-02-08T20:38:38.175Z,1.00
2023-02-08T20:41:07.259Z,0.91
2023-02-08T20:43:35.099Z,0.99
2023-02-08T20:46:04.482Z,1.13
2023-02-08T20:48:36.332Z,1.08
2023-02-08T20:51:08.110Z,1.09
2023-02-08T20:53:35.757Z,1.06
2023-02-08T20:56:06.136Z,1.11
2023-02-08T20:58:33.705Z,0.96
2023-02-08T21:01:03.571Z,1.06
2023-02-08T21:03:31.017Z,0.93
2023-02-08T21:05:59.813Z,0.92
2023-02-08T21:08:27.250Z,0.97
2023-02-08T21:10:55.969Z,0.87
2023-02-08T21:13:23.420Z,0.78
2023-02-08T21:15:51.017Z,0.87
2023-02-08T21:18:19.319Z,0.82
2023-02-08T21:20:48.054Z,0.78
2023-02-08T21:25:59.279Z,0.93
2023-02-08T21:29:07.380Z,0.87
2023-02-08T21:31:36.538Z,0.93
2023-02-08T21:34:04.827Z,0.75
2023-02-08T21:36:33.245Z,0.88
2023-02-08T21:39:01.336Z,0.77
2023-02-08T21:41:32.866Z,0.82
2023-02-08T21:44:04.399Z,0.78
2023-02-08T21:46:33.031Z,0.68
2023-02-08T21:49:21.978Z,0.72
2023-02-08T21:52:07.050Z,0.77
2023-02-08T21:54:45.819Z,0.64
2023-02-08T21:57:19.287Z,0.78
2023-02-08T21:59:47.572Z,0.84
2023-02-08T22:04:50.736Z,0.84
2023-02-08T22:07:18.500Z,0.92
2023-02-08T22:12:29.300Z,1.03
2023-02-08T22:14:56.906Z,1.03
2023-02-08T22:17:24.796Z,1.01
2023-02-08T22:19:52.638Z,0.93
2023-02-08T22:25:21.140Z,0.93
2023-02-08T22:27:50.352Z,0.88
2023-02-08T22:30:24.436Z,0.77
2023-02-08T22:32:53.216Z,0.81
2023-02-08T22:35:21.025Z,0.96
2023-02-08T22:37:48.635Z,0.91
2023-02-08T22:40:16.403Z,1.12
2023-02-08T22:42:44.072Z,1.23
2023-02-08T22:45:13.365Z,0.98
2023-02-08T22:47:41.159Z,1.04
2023-02-08T22:50:09.388Z,1.03
2023-02-08T22:52:37.175Z,1.07
2023-02-08T22:55:06.173Z,1.04
2023-02-08T22:57:35.460Z,1.04
2023-02-08T23:00:03.369Z,1.08
2023-02-08T23:02:33.268Z,0.89
2023-02-08T23:07:42.373Z,1.06
2023-02-08T23:10:11.177Z,0.91
2023-02-08T23:12:38.776Z,1.02
2023-02-08T23:15:06.787Z,1.08
2023-02-08T23:17:38.582Z,0.98
2023-02-08T23:20:06.588Z,1.08
2023-02-08T23:22:37.590Z,1.07
2023-02-08T23:25:05.744Z,0.87
2023-02-08T23:27:33.253Z,0.81
2023-02-08T23:30:01.126Z,0.73
2023-02-08T23:32:28.753Z,0.79
2023-02-08T23:35:27.113Z,0.75
2023-02-08T23:37:54.818Z,0.77
2023-02-08T23:42:57.787Z,0.53
2023-02-08T23:45:25.324Z,0.68
2023-02-08T23:48:30.543Z,0.63
2023-02-08T23:50:59.892Z,0.67
2023-02-08T23:53:31.411Z,0.77
2023-02-08T23:56:07.787Z,0.77
